Tenino, WA (98589)

10:18 AM PDT on September 02, 2014 (GMT -0700)
Tenino, WA | Change Station
CLOSE
Current Station
Personal Weather Station
Location: Tenino, WA
Elevation: 283 ft
Nearby Weather Stations

Elev 283 ft 46.86 °N, 122.85 °W | Updated 1 second ago

Overcast
Overcast
59.9 °F
Feels Like 59.9 °F
N
5.0
Wind Variable Wind from SW
Gusts 6.0 mph

Today
High -- | Low -- °F
--% Chance of Precip.
Yesterday
High -- | Low -- °F
Precip. -- in
6:32 AM 7:48 PM
First Quarter, 53% visible
Pressure 29.94 in
Visibility 10.0 miles
Clouds Mostly Cloudy 1200 ft
Overcast 1700 ft
Dew Point 56 °F
Humidity 86%
Rainfall 0.00 in
Snow Depth Not available.
UV 1 out of 12
Pollen 2.80 out of 12
PM2.5 Good
Flu Activity Not available.
SPECI KOLM 021705Z 19007KT 10SM BKN012 OVC017 16/12 A2994 RMK AO2 T01610122

More Conditions Fewer Conditions

Pressure 29.94 in
Visibility 10.0 miles
Clouds Mostly Cloudy 1200 ft
Overcast 1700 ft
Dew Point 56 °F
Humidity 86%
Rainfall 0.00 in
Snow Depth Not available.
UV 1 out of 12
Pollen 2.80 out of 12
PM2.5 Good
Flu Activity Not available.
SPECI KOLM 021705Z 19007KT 10SM BKN012 OVC017 16/12 A2994 RMK AO2 T01610122

More Conditions Fewer Conditions

10-Day Weather Forecast

Almanac

Astronomy

Sep. 02, 2014 Rise Set
Actual Time 6:32 AM PDT 7:48 PM PDT
Civil Twilight 6:01 AM PDT 8:19 PM PDT
Nautical Twilight 5:23 AM PDT 8:57 PM PDT
Astronomical Twilight 4:42 AM PDT 9:37 PM PDT
Moon 2:48 PM PDT No Moon Set
Length of Visible Light 14h 18m
Length of Day
13h 16m
Tomorrow will be 3m 14s shorter.
First Quarter, 53% of the Moon is Illuminated
Today
First Quarter
Sep 8
Full
Sep 15
Last Quarter
Sep 24
New
Oct 1
First Quarter

Today's Extremes

State Highs State Lows

Community

WunderPhotos

Upload Photos

1,749,719 photos uploaded!

WunderBlogs® & News

By Dr. Jeff Masters
Director of Meteorology, Weather Underground
By Kari Strenfel
Meteorologist, Weather Underground
By Christopher C. Burt
Weather Historian, Weather Underground
September 2, 2014
September 2, 2014
September 2, 2014

Nearby

Air Quality

  Air Quality AQ Index Pollutant
Yesterday Good
PM2.5
Current Good
PM2.5

Snow Depth

Station Depth Elevation
Spirit Lake 0 in 3120 ft
Swift Creek 1 in 3770 ft
Lone Pine 0 in 3800 ft
June Lake 0 in 3340 ft
Huckleberry Creek 0 in 2000 ft

Earthquake Activity

City Distance Mag. Time & Date
No recent earthquake activity has been reported nearby.
Minimum magnitude displayed is 2.5.

Coastal Water Temperatures

Place Temperature
Port Townsend, WA 53.1 °F
Seattle, WA 55.9 °F
Friday Harbor, WA 52.0 °F
Tacoma, WA 55.0 °F

Nearby Weather Stations